sensor_id;sensor_type;location;lat;lon;timestamp;P1;durP1;ratioP1;P2;durP2;ratioP2
54454;SDS011;40364;52.270;10.546;2023-05-16T00:02:00;8.43;;;5.30;;
54454;SDS011;40364;52.270;10.546;2023-05-16T00:04:27;12.80;;;5.88;;
54454;SDS011;40364;52.270;10.546;2023-05-16T00:06:54;9.10;;;5.15;;
54454;SDS011;40364;52.270;10.546;2023-05-16T00:09:21;7.18;;;5.05;;
54454;SDS011;40364;52.270;10.546;2023-05-16T00:11:49;7.15;;;4.85;;
54454;SDS011;40364;52.270;10.546;2023-05-16T00:14:15;8.45;;;5.38;;
54454;SDS011;40364;52.270;10.546;2023-05-16T00:16:43;7.22;;;5.55;;
54454;SDS011;40364;52.270;10.546;2023-05-16T00:19:11;12.02;;;5.45;;
54454;SDS011;40364;52.270;10.546;2023-05-16T00:21:37;8.02;;;5.30;;
54454;SDS011;40364;52.270;10.546;2023-05-16T00:24:04;7.78;;;5.25;;
54454;SDS011;40364;52.270;10.546;2023-05-16T00:26:31;6.78;;;4.70;;
54454;SDS011;40364;52.270;10.546;2023-05-16T00:28:59;9.15;;;4.60;;
54454;SDS011;40364;52.270;10.546;2023-05-16T00:31:26;6.95;;;4.40;;
54454;SDS011;40364;52.270;10.546;2023-05-16T00:33:53;7.07;;;3.95;;
54454;SDS011;40364;52.270;10.546;2023-05-16T00:36:19;9.02;;;4.18;;
54454;SDS011;40364;52.270;10.546;2023-05-16T00:38:46;6.53;;;3.20;;
54454;SDS011;40364;52.270;10.546;2023-05-16T00:41:13;7.20;;;3.55;;
54454;SDS011;40364;52.270;10.546;2023-05-16T00:43:39;8.63;;;4.10;;
54454;SDS011;40364;52.270;10.546;2023-05-16T00:46:07;6.20;;;3.08;;
54454;SDS011;40364;52.270;10.546;2023-05-16T00:48:34;3.80;;;2.60;;
54454;SDS011;40364;52.270;10.546;2023-05-16T00:51:01;5.57;;;2.90;;
54454;SDS011;40364;52.270;10.546;2023-05-16T00:53:27;3.80;;;2.70;;
54454;SDS011;40364;52.270;10.546;2023-05-16T00:55:55;4.80;;;2.75;;
54454;SDS011;40364;52.270;10.546;2023-05-16T00:58:22;5.75;;;3.10;;
54454;SDS011;40364;52.270;10.546;2023-05-16T01:00:50;9.32;;;3.28;;
54454;SDS011;40364;52.270;10.546;2023-05-16T01:03:18;4.93;;;2.85;;
54454;SDS011;40364;52.270;10.546;2023-05-16T01:05:45;4.38;;;2.88;;
54454;SDS011;40364;52.270;10.546;2023-05-16T01:08:12;8.32;;;3.30;;
54454;SDS011;40364;52.270;10.546;2023-05-16T01:10:42;4.63;;;2.78;;
54454;SDS011;40364;52.270;10.546;2023-05-16T01:13:17;6.50;;;3.30;;
54454;SDS011;40364;52.270;10.546;2023-05-16T01:15:55;8.45;;;3.33;;
54454;SDS011;40364;52.270;10.546;2023-05-16T01:18:28;6.93;;;3.17;;
54454;SDS011;40364;52.270;10.546;2023-05-16T01:21:00;7.60;;;3.15;;
54454;SDS011;40364;52.270;10.546;2023-05-16T01:23:38;3.88;;;2.60;;
54454;SDS011;40364;52.270;10.546;2023-05-16T01:26:16;5.10;;;2.60;;
54454;SDS011;40364;52.270;10.546;2023-05-16T01:28:44;5.72;;;3.00;;
54454;SDS011;40364;52.270;10.546;2023-05-16T01:31:12;6.35;;;2.95;;
54454;SDS011;40364;52.270;10.546;2023-05-16T01:33:39;5.35;;;3.00;;
54454;SDS011;40364;52.270;10.546;2023-05-16T01:36:08;4.85;;;3.00;;
54454;SDS011;40364;52.270;10.546;2023-05-16T01:38:40;8.68;;;3.45;;
54454;SDS011;40364;52.270;10.546;2023-05-16T01:41:12;3.85;;;2.95;;
54454;SDS011;40364;52.270;10.546;2023-05-16T01:43:45;8.40;;;4.25;;
54454;SDS011;40364;52.270;10.546;2023-05-16T01:46:15;5.85;;;3.25;;
54454;SDS011;40364;52.270;10.546;2023-05-16T01:48:49;5.75;;;3.20;;
54454;SDS011;40364;52.270;10.546;2023-05-16T01:51:19;10.82;;;3.22;;
54454;SDS011;40364;52.270;10.546;2023-05-16T01:53:47;6.78;;;2.53;;
54454;SDS011;40364;52.270;10.546;2023-05-16T01:56:17;3.58;;;2.40;;
54454;SDS011;40364;52.270;10.546;2023-05-16T01:58:45;6.80;;;2.70;;
54454;SDS011;40364;52.270;10.546;2023-05-16T02:01:15;4.15;;;2.58;;
54454;SDS011;40364;52.270;10.546;2023-05-16T02:03:41;3.35;;;2.10;;
54454;SDS011;40364;52.270;10.546;2023-05-16T02:06:08;4.57;;;2.45;;
54454;SDS011;40364;52.270;10.546;2023-05-16T02:08:35;3.88;;;2.03;;
54454;SDS011;40364;52.270;10.546;2023-05-16T02:11:01;2.55;;;1.80;;
54454;SDS011;40364;52.270;10.546;2023-05-16T02:13:29;5.35;;;2.17;;
54454;SDS011;40364;52.270;10.546;2023-05-16T02:15:56;3.55;;;2.42;;
54454;SDS011;40364;52.270;10.546;2023-05-16T02:18:23;5.70;;;2.58;;
54454;SDS011;40364;52.270;10.546;2023-05-16T02:20:50;5.32;;;2.42;;
54454;SDS011;40364;52.270;10.546;2023-05-16T02:23:17;4.25;;;2.13;;
54454;SDS011;40364;52.270;10.546;2023-05-16T02:25:43;4.15;;;2.88;;
54454;SDS011;40364;52.270;10.546;2023-05-16T02:28:10;9.20;;;2.92;;
54454;SDS011;40364;52.270;10.546;2023-05-16T02:30:38;4.75;;;2.78;;
54454;SDS011;40364;52.270;10.546;2023-05-16T02:33:05;5.40;;;2.78;;
54454;SDS011;40364;52.270;10.546;2023-05-16T02:35:32;5.47;;;3.05;;
54454;SDS011;40364;52.270;10.546;2023-05-16T02:37:58;9.30;;;2.30;;
54454;SDS011;40364;52.270;10.546;2023-05-16T02:40:25;5.05;;;2.67;;
54454;SDS011;40364;52.270;10.546;2023-05-16T02:42:51;5.13;;;2.90;;
54454;SDS011;40364;52.270;10.546;2023-05-16T02:45:18;4.47;;;2.50;;
54454;SDS011;40364;52.270;10.546;2023-05-16T02:47:46;5.47;;;2.55;;
54454;SDS011;40364;52.270;10.546;2023-05-16T02:50:13;4.45;;;2.90;;
54454;SDS011;40364;52.270;10.546;2023-05-16T02:52:39;8.70;;;2.83;;
54454;SDS011;40364;52.270;10.546;2023-05-16T02:55:06;5.07;;;2.38;;
54454;SDS011;40364;52.270;10.546;2023-05-16T02:57:33;5.53;;;2.50;;
54454;SDS011;40364;52.270;10.546;2023-05-16T03:00:00;3.65;;;2.90;;
54454;SDS011;40364;52.270;10.546;2023-05-16T03:02:30;6.78;;;3.20;;
54454;SDS011;40364;52.270;10.546;2023-05-16T03:04:58;5.25;;;2.60;;
54454;SDS011;40364;52.270;10.546;2023-05-16T03:07:24;4.88;;;2.13;;
54454;SDS011;40364;52.270;10.546;2023-05-16T03:09:51;8.13;;;2.45;;
54454;SDS011;40364;52.270;10.546;2023-05-16T03:12:17;3.10;;;2.20;;
54454;SDS011;40364;52.270;10.546;2023-05-16T03:14:44;3.67;;;1.98;;
54454;SDS011;40364;52.270;10.546;2023-05-16T03:17:10;7.10;;;2.42;;
54454;SDS011;40364;52.270;10.546;2023-05-16T03:19:37;5.00;;;2.10;;
54454;SDS011;40364;52.270;10.546;2023-05-16T03:22:05;12.35;;;3.80;;
54454;SDS011;40364;52.270;10.546;2023-05-16T03:24:32;5.35;;;2.25;;
54454;SDS011;40364;52.270;10.546;2023-05-16T03:26:58;6.93;;;2.15;;
54454;SDS011;40364;52.270;10.546;2023-05-16T03:29:25;7.25;;;2.42;;
54454;SDS011;40364;52.270;10.546;2023-05-16T03:31:52;8.23;;;2.38;;
54454;SDS011;40364;52.270;10.546;2023-05-16T03:34:18;4.72;;;2.28;;
54454;SDS011;40364;52.270;10.546;2023-05-16T03:36:45;6.60;;;2.13;;
54454;SDS011;40364;52.270;10.546;2023-05-16T03:39:14;3.47;;;2.53;;
54454;SDS011;40364;52.270;10.546;2023-05-16T03:41:41;7.13;;;2.30;;
54454;SDS011;40364;52.270;10.546;2023-05-16T03:44:07;4.05;;;2.00;;
54454;SDS011;40364;52.270;10.546;2023-05-16T03:46:34;6.70;;;2.28;;
54454;SDS011;40364;52.270;10.546;2023-05-16T03:49:01;3.05;;;2.00;;
54454;SDS011;40364;52.270;10.546;2023-05-16T03:51:27;5.32;;;2.75;;
54454;SDS011;40364;52.270;10.546;2023-05-16T03:53:55;6.97;;;2.80;;
54454;SDS011;40364;52.270;10.546;2023-05-16T03:56:23;6.38;;;2.47;;
54454;SDS011;40364;52.270;10.546;2023-05-16T03:58:50;5.45;;;2.10;;
54454;SDS011;40364;52.270;10.546;2023-05-16T04:01:16;7.35;;;2.60;;
54454;SDS011;40364;52.270;10.546;2023-05-16T04:03:43;4.38;;;2.13;;
54454;SDS011;40364;52.270;10.546;2023-05-16T04:06:10;4.70;;;2.17;;
54454;SDS011;40364;52.270;10.546;2023-05-16T04:08:36;3.05;;;2.17;;
54454;SDS011;40364;52.270;10.546;2023-05-16T04:11:05;9.43;;;2.20;;
54454;SDS011;40364;52.270;10.546;2023-05-16T04:13:33;7.93;;;2.72;;
54454;SDS011;40364;52.270;10.546;2023-05-16T04:15:59;4.38;;;2.15;;
54454;SDS011;40364;52.270;10.546;2023-05-16T04:18:27;9.80;;;2.60;;
54454;SDS011;40364;52.270;10.546;2023-05-16T04:20:53;9.30;;;2.38;;
54454;SDS011;40364;52.270;10.546;2023-05-16T04:23:20;3.40;;;2.38;;
54454;SDS011;40364;52.270;10.546;2023-05-16T04:25:46;6.30;;;3.20;;
54454;SDS011;40364;52.270;10.546;2023-05-16T04:28:14;5.05;;;2.72;;
54454;SDS011;40364;52.270;10.546;2023-05-16T04:30:43;2.40;;;2.08;;
54454;SDS011;40364;52.270;10.546;2023-05-16T04:33:10;6.40;;;2.20;;
54454;SDS011;40364;52.270;10.546;2023-05-16T04:35:37;3.55;;;2.28;;
54454;SDS011;40364;52.270;10.546;2023-05-16T04:38:04;5.30;;;1.92;;
54454;SDS011;40364;52.270;10.546;2023-05-16T04:40:30;4.15;;;1.90;;
54454;SDS011;40364;52.270;10.546;2023-05-16T04:42:57;3.90;;;1.45;;
54454;SDS011;40364;52.270;10.546;2023-05-16T04:45:24;4.28;;;1.60;;
54454;SDS011;40364;52.270;10.546;2023-05-16T04:47:52;5.63;;;1.83;;
54454;SDS011;40364;52.270;10.546;2023-05-16T04:50:19;1.88;;;1.17;;
54454;SDS011;40364;52.270;10.546;2023-05-16T04:52:46;1.73;;;1.33;;
54454;SDS011;40364;52.270;10.546;2023-05-16T04:55:12;2.92;;;1.33;;
54454;SDS011;40364;52.270;10.546;2023-05-16T04:57:40;5.32;;;1.42;;
54454;SDS011;40364;52.270;10.546;2023-05-16T05:00:07;3.80;;;1.90;;
54454;SDS011;40364;52.270;10.546;2023-05-16T05:02:36;5.10;;;1.60;;
54454;SDS011;40364;52.270;10.546;2023-05-16T05:05:05;1.90;;;1.58;;
54454;SDS011;40364;52.270;10.546;2023-05-16T05:07:32;3.00;;;1.55;;
54454;SDS011;40364;52.270;10.546;2023-05-16T05:09:59;5.43;;;1.80;;
54454;SDS011;40364;52.270;10.546;2023-05-16T05:12:26;7.35;;;1.65;;
54454;SDS011;40364;52.270;10.546;2023-05-16T05:14:53;3.65;;;1.67;;
54454;SDS011;40364;52.270;10.546;2023-05-16T05:17:20;4.47;;;1.50;;
54454;SDS011;40364;52.270;10.546;2023-05-16T05:19:47;3.83;;;1.58;;
54454;SDS011;40364;52.270;10.546;2023-05-16T05:22:16;5.30;;;1.85;;
54454;SDS011;40364;52.270;10.546;2023-05-16T05:24:42;2.58;;;1.30;;
54454;SDS011;40364;52.270;10.546;2023-05-16T05:27:09;10.48;;;1.65;;
54454;SDS011;40364;52.270;10.546;2023-05-16T05:29:36;6.82;;;1.38;;
54454;SDS011;40364;52.270;10.546;2023-05-16T05:32:03;4.88;;;1.35;;
54454;SDS011;40364;52.270;10.546;2023-05-16T05:34:30;11.20;;;1.88;;
54454;SDS011;40364;52.270;10.546;2023-05-16T05:36:57;5.47;;;1.27;;
54454;SDS011;40364;52.270;10.546;2023-05-16T05:39:25;7.00;;;1.48;;
54454;SDS011;40364;52.270;10.546;2023-05-16T05:41:52;6.63;;;1.27;;
54454;SDS011;40364;52.270;10.546;2023-05-16T05:44:18;5.80;;;1.73;;
54454;SDS011;40364;52.270;10.546;2023-05-16T05:46:45;9.65;;;1.65;;
54454;SDS011;40364;52.270;10.546;2023-05-16T05:49:12;10.45;;;1.55;;
54454;SDS011;40364;52.270;10.546;2023-05-16T05:51:39;11.32;;;1.60;;
54454;SDS011;40364;52.270;10.546;2023-05-16T05:54:05;6.47;;;1.73;;
54454;SDS011;40364;52.270;10.546;2023-05-16T05:56:33;5.82;;;1.50;;
54454;SDS011;40364;52.270;10.546;2023-05-16T05:59:00;4.53;;;2.10;;
54454;SDS011;40364;52.270;10.546;2023-05-16T06:01:27;9.43;;;2.63;;
54454;SDS011;40364;52.270;10.546;2023-05-16T06:03:54;5.40;;;1.80;;
54454;SDS011;40364;52.270;10.546;2023-05-16T06:06:21;6.68;;;1.83;;
54454;SDS011;40364;52.270;10.546;2023-05-16T06:08:48;13.30;;;2.67;;
54454;SDS011;40364;52.270;10.546;2023-05-16T06:11:15;8.07;;;2.13;;
54454;SDS011;40364;52.270;10.546;2023-05-16T06:13:43;9.45;;;2.00;;
54454;SDS011;40364;52.270;10.546;2023-05-16T06:16:09;6.80;;;2.03;;
54454;SDS011;40364;52.270;10.546;2023-05-16T06:18:36;8.90;;;1.90;;
54454;SDS011;40364;52.270;10.546;2023-05-16T06:21:03;15.27;;;2.45;;
54454;SDS011;40364;52.270;10.546;2023-05-16T06:23:30;10.38;;;2.00;;
54454;SDS011;40364;52.270;10.546;2023-05-16T06:25:58;8.20;;;2.10;;
54454;SDS011;40364;52.270;10.546;2023-05-16T06:28:25;10.85;;;2.22;;
54454;SDS011;40364;52.270;10.546;2023-05-16T06:30:53;9.77;;;2.55;;
54454;SDS011;40364;52.270;10.546;2023-05-16T06:33:19;10.02;;;2.10;;
54454;SDS011;40364;52.270;10.546;2023-05-16T06:35:46;12.38;;;1.73;;
54454;SDS011;40364;52.270;10.546;2023-05-16T06:38:13;8.85;;;1.73;;
54454;SDS011;40364;52.270;10.546;2023-05-16T06:40:40;12.15;;;2.15;;
54454;SDS011;40364;52.270;10.546;2023-05-16T06:43:06;6.88;;;1.45;;
54454;SDS011;40364;52.270;10.546;2023-05-16T06:45:33;9.70;;;1.40;;
54454;SDS011;40364;52.270;10.546;2023-05-16T06:48:01;11.25;;;1.40;;
54454;SDS011;40364;52.270;10.546;2023-05-16T06:50:28;8.20;;;1.65;;
54454;SDS011;40364;52.270;10.546;2023-05-16T06:52:55;8.45;;;1.48;;
54454;SDS011;40364;52.270;10.546;2023-05-16T06:55:21;11.65;;;1.90;;
54454;SDS011;40364;52.270;10.546;2023-05-16T06:57:48;12.27;;;1.70;;
54454;SDS011;40364;52.270;10.546;2023-05-16T07:00:15;11.23;;;1.90;;
54454;SDS011;40364;52.270;10.546;2023-05-16T07:02:43;15.98;;;1.98;;
54454;SDS011;40364;52.270;10.546;2023-05-16T07:05:10;8.23;;;1.55;;
54454;SDS011;40364;52.270;10.546;2023-05-16T07:07:37;9.93;;;1.60;;
54454;SDS011;40364;52.270;10.546;2023-05-16T07:10:04;11.80;;;1.83;;
54454;SDS011;40364;52.270;10.546;2023-05-16T07:12:31;11.27;;;1.73;;
54454;SDS011;40364;52.270;10.546;2023-05-16T07:14:58;13.43;;;1.95;;
54454;SDS011;40364;52.270;10.546;2023-05-16T07:17:25;13.65;;;1.35;;
54454;SDS011;40364;52.270;10.546;2023-05-16T07:19:51;10.43;;;1.55;;
54454;SDS011;40364;52.270;10.546;2023-05-16T07:22:19;10.00;;;1.30;;
54454;SDS011;40364;52.270;10.546;2023-05-16T07:24:46;11.15;;;1.67;;
54454;SDS011;40364;52.270;10.546;2023-05-16T07:27:12;9.93;;;1.23;;
54454;SDS011;40364;52.270;10.546;2023-05-16T07:29:39;13.82;;;1.40;;
54454;SDS011;40364;52.270;10.546;2023-05-16T07:32:06;8.90;;;1.67;;
54454;SDS011;40364;52.270;10.546;2023-05-16T07:34:33;6.32;;;1.17;;
54454;SDS011;40364;52.270;10.546;2023-05-16T07:37:00;8.93;;;1.30;;
54454;SDS011;40364;52.270;10.546;2023-05-16T07:39:27;4.57;;;0.90;;
54454;SDS011;40364;52.270;10.546;2023-05-16T07:41:54;7.00;;;0.95;;
54454;SDS011;40364;52.270;10.546;2023-05-16T07:44:21;6.88;;;1.30;;
54454;SDS011;40364;52.270;10.546;2023-05-16T07:46:47;13.68;;;1.45;;
54454;SDS011;40364;52.270;10.546;2023-05-16T07:49:14;4.47;;;1.10;;
54454;SDS011;40364;52.270;10.546;2023-05-16T07:51:41;11.18;;;1.23;;
54454;SDS011;40364;52.270;10.546;2023-05-16T07:54:08;11.30;;;1.50;;
54454;SDS011;40364;52.270;10.546;2023-05-16T07:56:36;8.43;;;1.48;;
54454;SDS011;40364;52.270;10.546;2023-05-16T07:59:03;9.52;;;1.08;;
54454;SDS011;40364;52.270;10.546;2023-05-16T08:01:29;9.50;;;1.27;;
54454;SDS011;40364;52.270;10.546;2023-05-16T08:03:56;7.30;;;1.20;;
54454;SDS011;40364;52.270;10.546;2023-05-16T08:06:23;6.45;;;1.00;;
54454;SDS011;40364;52.270;10.546;2023-05-16T08:08:50;6.57;;;1.83;;
54454;SDS011;40364;52.270;10.546;2023-05-16T08:11:17;14.40;;;1.55;;
54454;SDS011;40364;52.270;10.546;2023-05-16T08:13:48;11.27;;;1.73;;
54454;SDS011;40364;52.270;10.546;2023-05-16T08:16:15;8.10;;;1.52;;
54454;SDS011;40364;52.270;10.546;2023-05-16T08:18:41;7.95;;;1.33;;
54454;SDS011;40364;52.270;10.546;2023-05-16T08:21:08;8.07;;;1.60;;
54454;SDS011;40364;52.270;10.546;2023-05-16T08:23:35;9.98;;;1.45;;
54454;SDS011;40364;52.270;10.546;2023-05-16T08:26:02;8.82;;;1.10;;
54454;SDS011;40364;52.270;10.546;2023-05-16T08:28:29;6.38;;;1.50;;
54454;SDS011;40364;52.270;10.546;2023-05-16T08:30:57;9.93;;;1.90;;
54454;SDS011;40364;52.270;10.546;2023-05-16T08:33:24;6.43;;;1.55;;
54454;SDS011;40364;52.270;10.546;2023-05-16T08:35:51;5.65;;;1.25;;
54454;SDS011;40364;52.270;10.546;2023-05-16T08:38:17;2.92;;;0.90;;
54454;SDS011;40364;52.270;10.546;2023-05-16T08:40:44;10.63;;;1.63;;
54454;SDS011;40364;52.270;10.546;2023-05-16T08:43:11;7.43;;;1.58;;
54454;SDS011;40364;52.270;10.546;2023-05-16T08:45:39;4.05;;;1.08;;
54454;SDS011;40364;52.270;10.546;2023-05-16T08:48:07;9.32;;;1.25;;
54454;SDS011;40364;52.270;10.546;2023-05-16T08:50:36;11.57;;;1.17;;
54454;SDS011;40364;52.270;10.546;2023-05-16T08:53:03;4.47;;;1.27;;
54454;SDS011;40364;52.270;10.546;2023-05-16T08:55:32;4.97;;;0.98;;
54454;SDS011;40364;52.270;10.546;2023-05-16T08:58:00;10.43;;;1.10;;
54454;SDS011;40364;52.270;10.546;2023-05-16T09:00:27;5.63;;;1.20;;
54454;SDS011;40364;52.270;10.546;2023-05-16T09:02:55;3.50;;;0.90;;
54454;SDS011;40364;52.270;10.546;2023-05-16T09:05:24;5.38;;;1.02;;
54454;SDS011;40364;52.270;10.546;2023-05-16T09:07:52;11.77;;;2.67;;
54454;SDS011;40364;52.270;10.546;2023-05-16T09:10:19;5.63;;;0.80;;
54454;SDS011;40364;52.270;10.546;2023-05-16T09:12:46;8.68;;;1.15;;
54454;SDS011;40364;52.270;10.546;2023-05-16T09:15:13;10.82;;;1.23;;
54454;SDS011;40364;52.270;10.546;2023-05-16T09:17:40;5.90;;;1.30;;
54454;SDS011;40364;52.270;10.546;2023-05-16T09:20:09;5.03;;;0.98;;
54454;SDS011;40364;52.270;10.546;2023-05-16T09:22:39;10.50;;;1.10;;
54454;SDS011;40364;52.270;10.546;2023-05-16T09:25:06;6.00;;;1.52;;
54454;SDS011;40364;52.270;10.546;2023-05-16T09:27:34;7.93;;;1.20;;
54454;SDS011;40364;52.270;10.546;2023-05-16T09:30:00;8.77;;;0.93;;
54454;SDS011;40364;52.270;10.546;2023-05-16T09:32:27;8.93;;;1.55;;
54454;SDS011;40364;52.270;10.546;2023-05-16T09:34:54;9.73;;;1.55;;
54454;SDS011;40364;52.270;10.546;2023-05-16T09:37:22;6.57;;;1.17;;
54454;SDS011;40364;52.270;10.546;2023-05-16T09:39:51;8.15;;;1.20;;
54454;SDS011;40364;52.270;10.546;2023-05-16T09:42:20;5.57;;;1.20;;
54454;SDS011;40364;52.270;10.546;2023-05-16T09:44:47;4.75;;;1.85;;
54454;SDS011;40364;52.270;10.546;2023-05-16T09:47:15;6.97;;;0.90;;
54454;SDS011;40364;52.270;10.546;2023-05-16T09:49:43;6.47;;;1.20;;
54454;SDS011;40364;52.270;10.546;2023-05-16T09:52:10;5.82;;;1.08;;
54454;SDS011;40364;52.270;10.546;2023-05-16T09:54:38;2.60;;;0.80;;
54454;SDS011;40364;52.270;10.546;2023-05-16T09:57:07;5.72;;;1.10;;
54454;SDS011;40364;52.270;10.546;2023-05-16T09:59:34;7.97;;;1.02;;
54454;SDS011;40364;52.270;10.546;2023-05-16T10:02:02;4.32;;;0.82;;
54454;SDS011;40364;52.270;10.546;2023-05-16T10:04:31;2.80;;;1.10;;
54454;SDS011;40364;52.270;10.546;2023-05-16T10:06:59;7.55;;;1.20;;
54454;SDS011;40364;52.270;10.546;2023-05-16T10:09:28;11.95;;;1.63;;
54454;SDS011;40364;52.270;10.546;2023-05-16T10:11:58;4.65;;;1.20;;
54454;SDS011;40364;52.270;10.546;2023-05-16T10:14:30;7.07;;;1.10;;
54454;SDS011;40364;52.270;10.546;2023-05-16T10:17:00;2.03;;;0.73;;
54454;SDS011;40364;52.270;10.546;2023-05-16T10:19:29;2.97;;;1.25;;
54454;SDS011;40364;52.270;10.546;2023-05-16T10:21:58;3.90;;;0.70;;
54454;SDS011;40364;52.270;10.546;2023-05-16T10:24:28;6.75;;;0.90;;
54454;SDS011;40364;52.270;10.546;2023-05-16T10:27:04;4.43;;;1.35;;
54454;SDS011;40364;52.270;10.546;2023-05-16T10:29:33;9.60;;;1.08;;
54454;SDS011;40364;52.270;10.546;2023-05-16T10:31:59;8.32;;;1.20;;
54454;SDS011;40364;52.270;10.546;2023-05-16T10:34:27;7.50;;;0.90;;
54454;SDS011;40364;52.270;10.546;2023-05-16T10:36:54;5.82;;;0.60;;
54454;SDS011;40364;52.270;10.546;2023-05-16T10:39:21;5.47;;;1.00;;
54454;SDS011;40364;52.270;10.546;2023-05-16T10:41:51;3.97;;;1.05;;
54454;SDS011;40364;52.270;10.546;2023-05-16T10:44:19;4.85;;;0.77;;
54454;SDS011;40364;52.270;10.546;2023-05-16T10:46:47;4.82;;;1.23;;
54454;SDS011;40364;52.270;10.546;2023-05-16T10:49:20;7.47;;;1.13;;
54454;SDS011;40364;52.270;10.546;2023-05-16T10:52:00;10.15;;;1.13;;
54454;SDS011;40364;52.270;10.546;2023-05-16T10:54:33;4.00;;;1.60;;
54454;SDS011;40364;52.270;10.546;2023-05-16T10:57:03;3.75;;;0.75;;
54454;SDS011;40364;52.270;10.546;2023-05-16T10:59:38;10.63;;;1.50;;
54454;SDS011;40364;52.270;10.546;2023-05-16T11:02:21;4.63;;;0.98;;
54454;SDS011;40364;52.270;10.546;2023-05-16T11:04:49;4.00;;;0.77;;
54454;SDS011;40364;52.270;10.546;2023-05-16T11:07:17;2.80;;;0.60;;
54454;SDS011;40364;52.270;10.546;2023-05-16T11:09:49;4.57;;;0.70;;
54454;SDS011;40364;52.270;10.546;2023-05-16T11:12:34;2.47;;;0.47;;
54454;SDS011;40364;52.270;10.546;2023-05-16T11:15:18;1.75;;;0.68;;
54454;SDS011;40364;52.270;10.546;2023-05-16T11:17:48;5.57;;;0.70;;
54454;SDS011;40364;52.270;10.546;2023-05-16T11:25:51;1.35;;;0.57;;
54454;SDS011;40364;52.270;10.546;2023-05-16T11:28:20;4.57;;;0.70;;
54454;SDS011;40364;52.270;10.546;2023-05-16T11:30:49;3.10;;;0.98;;
54454;SDS011;40364;52.270;10.546;2023-05-16T11:33:23;4.07;;;0.70;;
54454;SDS011;40364;52.270;10.546;2023-05-16T11:36:02;4.38;;;0.85;;
54454;SDS011;40364;52.270;10.546;2023-05-16T11:38:43;4.13;;;0.80;;
54454;SDS011;40364;52.270;10.546;2023-05-16T11:41:19;6.20;;;1.45;;
54454;SDS011;40364;52.270;10.546;2023-05-16T11:43:47;4.50;;;0.52;;
54454;SDS011;40364;52.270;10.546;2023-05-16T11:46:14;7.90;;;0.68;;
54454;SDS011;40364;52.270;10.546;2023-05-16T11:48:42;6.65;;;0.70;;
54454;SDS011;40364;52.270;10.546;2023-05-16T11:51:10;2.03;;;0.75;;
54454;SDS011;40364;52.270;10.546;2023-05-16T11:53:38;4.53;;;0.43;;
54454;SDS011;40364;52.270;10.546;2023-05-16T11:56:08;15.82;;;1.80;;
54454;SDS011;40364;52.270;10.546;2023-05-16T11:58:35;4.05;;;0.85;;
54454;SDS011;40364;52.270;10.546;2023-05-16T12:01:02;8.05;;;0.95;;
54454;SDS011;40364;52.270;10.546;2023-05-16T12:03:34;3.35;;;0.73;;
54454;SDS011;40364;52.270;10.546;2023-05-16T12:06:04;3.30;;;0.68;;
54454;SDS011;40364;52.270;10.546;2023-05-16T12:08:31;7.20;;;0.95;;
54454;SDS011;40364;52.270;10.546;2023-05-16T12:10:58;4.18;;;0.80;;
54454;SDS011;40364;52.270;10.546;2023-05-16T12:13:26;2.97;;;0.70;;
54454;SDS011;40364;52.270;10.546;2023-05-16T12:15:53;4.13;;;0.85;;
54454;SDS011;40364;52.270;10.546;2023-05-16T12:18:20;2.65;;;0.60;;
54454;SDS011;40364;52.270;10.546;2023-05-16T12:20:47;5.20;;;0.77;;
54454;SDS011;40364;52.270;10.546;2023-05-16T12:23:15;3.30;;;0.55;;
54454;SDS011;40364;52.270;10.546;2023-05-16T12:25:44;3.72;;;0.60;;
54454;SDS011;40364;52.270;10.546;2023-05-16T12:28:13;5.25;;;1.33;;
54454;SDS011;40364;52.270;10.546;2023-05-16T12:30:41;2.58;;;0.70;;
54454;SDS011;40364;52.270;10.546;2023-05-16T12:33:09;6.22;;;0.63;;
54454;SDS011;40364;52.270;10.546;2023-05-16T12:35:40;3.67;;;0.95;;
54454;SDS011;40364;52.270;10.546;2023-05-16T12:38:08;3.15;;;0.68;;
54454;SDS011;40364;52.270;10.546;2023-05-16T12:40:38;2.50;;;0.70;;
54454;SDS011;40364;52.270;10.546;2023-05-16T12:43:12;1.15;;;0.65;;
54454;SDS011;40364;52.270;10.546;2023-05-16T12:45:39;2.70;;;0.60;;
54454;SDS011;40364;52.270;10.546;2023-05-16T12:48:10;1.77;;;0.65;;
54454;SDS011;40364;52.270;10.546;2023-05-16T12:50:37;5.18;;;0.65;;
54454;SDS011;40364;52.270;10.546;2023-05-16T12:53:09;4.93;;;0.68;;
54454;SDS011;40364;52.270;10.546;2023-05-16T12:55:39;3.28;;;0.80;;
54454;SDS011;40364;52.270;10.546;2023-05-16T12:58:06;2.33;;;0.80;;
54454;SDS011;40364;52.270;10.546;2023-05-16T13:00:33;4.15;;;0.80;;
54454;SDS011;40364;52.270;10.546;2023-05-16T13:03:00;1.95;;;0.75;;
54454;SDS011;40364;52.270;10.546;2023-05-16T13:05:27;2.95;;;0.63;;
54454;SDS011;40364;52.270;10.546;2023-05-16T13:07:54;3.88;;;0.57;;
54454;SDS011;40364;52.270;10.546;2023-05-16T13:10:20;7.00;;;0.80;;
54454;SDS011;40364;52.270;10.546;2023-05-16T13:12:48;3.72;;;0.80;;
54454;SDS011;40364;52.270;10.546;2023-05-16T13:15:15;2.47;;;0.70;;
54454;SDS011;40364;52.270;10.546;2023-05-16T13:17:42;4.55;;;0.90;;
54454;SDS011;40364;52.270;10.546;2023-05-16T13:20:09;3.55;;;0.77;;
54454;SDS011;40364;52.270;10.546;2023-05-16T13:22:37;4.63;;;0.75;;
54454;SDS011;40364;52.270;10.546;2023-05-16T13:25:04;3.97;;;0.98;;
54454;SDS011;40364;52.270;10.546;2023-05-16T13:27:32;2.80;;;0.80;;
54454;SDS011;40364;52.270;10.546;2023-05-16T13:30:00;2.05;;;0.85;;
54454;SDS011;40364;52.270;10.546;2023-05-16T13:32:28;3.53;;;0.57;;
54454;SDS011;40364;52.270;10.546;2023-05-16T13:34:54;5.57;;;0.82;;
54454;SDS011;40364;52.270;10.546;2023-05-16T13:37:21;3.08;;;0.70;;
54454;SDS011;40364;52.270;10.546;2023-05-16T13:39:48;2.47;;;0.60;;
54454;SDS011;40364;52.270;10.546;2023-05-16T13:42:15;3.63;;;0.55;;
54454;SDS011;40364;52.270;10.546;2023-05-16T13:44:41;3.40;;;1.40;;
54454;SDS011;40364;52.270;10.546;2023-05-16T13:47:10;5.30;;;0.80;;
54454;SDS011;40364;52.270;10.546;2023-05-16T13:49:37;7.65;;;1.20;;
54454;SDS011;40364;52.270;10.546;2023-05-16T13:52:04;6.53;;;0.75;;
54454;SDS011;40364;52.270;10.546;2023-05-16T13:54:31;3.00;;;1.00;;
54454;SDS011;40364;52.270;10.546;2023-05-16T13:56:57;2.38;;;1.05;;
54454;SDS011;40364;52.270;10.546;2023-05-16T13:59:25;2.97;;;0.73;;
54454;SDS011;40364;52.270;10.546;2023-05-16T14:01:52;4.82;;;0.80;;
54454;SDS011;40364;52.270;10.546;2023-05-16T14:04:20;4.28;;;0.90;;
54454;SDS011;40364;52.270;10.546;2023-05-16T14:06:46;4.10;;;1.00;;
54454;SDS011;40364;52.270;10.546;2023-05-16T14:09:13;4.22;;;1.20;;
54454;SDS011;40364;52.270;10.546;2023-05-16T14:11:40;3.55;;;0.95;;
54454;SDS011;40364;52.270;10.546;2023-05-16T14:14:07;7.53;;;1.27;;
54454;SDS011;40364;52.270;10.546;2023-05-16T14:16:34;3.22;;;1.25;;
54454;SDS011;40364;52.270;10.546;2023-05-16T14:19:01;4.18;;;0.68;;
54454;SDS011;40364;52.270;10.546;2023-05-16T14:21:29;3.05;;;0.80;;
54454;SDS011;40364;52.270;10.546;2023-05-16T14:23:55;3.17;;;0.70;;
54454;SDS011;40364;52.270;10.546;2023-05-16T14:26:22;1.92;;;0.60;;
54454;SDS011;40364;52.270;10.546;2023-05-16T14:28:49;1.98;;;0.60;;
54454;SDS011;40364;52.270;10.546;2023-05-16T14:31:16;1.50;;;0.80;;
54454;SDS011;40364;52.270;10.546;2023-05-16T14:33:43;3.35;;;0.70;;
54454;SDS011;40364;52.270;10.546;2023-05-16T14:36:10;3.15;;;0.90;;
54454;SDS011;40364;52.270;10.546;2023-05-16T14:38:38;6.05;;;1.42;;
54454;SDS011;40364;52.270;10.546;2023-05-16T14:41:04;1.48;;;0.57;;
54454;SDS011;40364;52.270;10.546;2023-05-16T14:43:31;2.08;;;0.52;;